Time;durP1;ratioP1;P1;durP2;ratioP2;P2;SDS_P1;SDS_P2;PMS_P1;PMS_P2;Temp;Humidity;BMP_temperature;BMP_pressure;BME280_temperature;BME280_humidity;BME280_pressure;Samples;Min_cycle;Max_cycle;Signal;HPM_P1;HPM_P2
2022/09/01 00:02:14;;;;;;;;;;;13.80;99.90;;;;;;5072289;28;20018;-73
2022/09/01 00:04:43;;;;;;;;;;;13.90;99.90;;;;;;5070681;28;19912;-74
2022/09/01 00:07:09;;;;;;;;;;;14.00;99.90;;;;;;5070520;28;19912;-74
2022/09/01 00:09:36;;;;;;;;;;;14.00;99.90;;;;;;5070280;28;19912;-74
2022/09/01 00:12:04;;;;;;;;;;;13.90;99.90;;;;;;5071820;28;20384;-73
2022/09/01 00:14:32;;;;;;;;;;;13.80;99.90;;;;;;5070464;28;19917;-74
2022/09/01 00:16:59;;;;;;;;;;;13.80;99.90;;;;;;5070551;28;19916;-73
2022/09/01 00:19:25;;;;;;;;;;;13.60;99.90;;;;;;5071006;28;20273;-76
2022/09/01 00:21:51;;;;;;;;;;;13.60;99.90;;;;;;5073909;28;19920;-73
2022/09/01 00:24:18;;;;;;;;;;;13.60;99.90;;;;;;5057245;28;20340;-74
2022/09/01 00:26:44;;;;;;;;;;;13.60;99.90;;;;;;5051644;28;19924;-74
2022/09/01 00:29:10;;;;;;;;;;;13.60;99.90;;;;;;5055699;28;19917;-73
2022/09/01 00:31:37;;;;;;;;;;;13.70;99.90;;;;;;5054831;28;19913;-74
2022/09/01 00:34:03;;;;;;;;;;;13.80;99.90;;;;;;5054863;28;19916;-74
2022/09/01 00:36:30;;;;;;;;;;;13.80;99.90;;;;;;5052042;28;19917;-75
2022/09/01 00:38:56;;;;;;;;;;;13.90;99.90;;;;;;5055040;28;19920;-74
2022/09/01 00:41:31;;;;;;;;;;;13.90;99.90;;;;;;5055269;28;20312;-74
2022/09/01 00:43:59;;;;;;;;;;;13.90;99.90;;;;;;5055173;28;20277;-74
2022/09/01 00:46:26;;;;;;;;;;;13.90;99.90;;;;;;5053856;28;19911;-77
2022/09/01 00:48:55;;;;;;;;;;;13.90;99.90;;;;;;5055266;28;19912;-74
2022/09/01 00:51:22;;;;;;;;;;;13.90;99.90;;;;;;5054031;28;19916;-73
2022/09/01 00:53:48;;;;;;;;;;;13.90;99.90;;;;;;5052558;28;19909;-73
2022/09/01 00:56:15;;;;;;;;;;;13.80;99.90;;;;;;5067919;28;19944;-73
2022/09/01 00:58:41;;;;;;;;;;;13.80;99.90;;;;;;5054033;28;19928;-73
2022/09/01 01:01:08;;;;;;;;;;;13.90;99.90;;;;;;5053887;28;19913;-73
2022/09/01 01:03:34;;;;;;;;;;;13.90;99.90;;;;;;5053914;28;20281;-73
2022/09/01 01:06:03;;;;;;;;;;;13.90;99.90;;;;;;5053253;28;20361;-73
2022/09/01 01:08:32;;;;;;;;;;;13.90;99.90;;;;;;5053392;28;19908;-75
2022/09/01 01:11:03;;;;;;;;;;;13.90;99.90;;;;;;5053726;28;19920;-73
2022/09/01 01:13:47;;;;;;;;;;;13.90;99.90;;;;;;5053779;28;19921;-74
2022/09/01 01:16:14;;;;;;;;;;;13.70;99.90;;;;;;5051864;28;19920;-73
2022/09/01 01:18:41;;;;;;;;;;;13.60;99.90;;;;;;5052569;28;19912;-73
2022/09/01 01:24:00;;;;;;;;;;;13.50;99.90;;;;;;5068934;28;19916;-73
2022/09/01 01:26:26;;;;;;;;;;;13.60;99.90;;;;;;5051427;28;19921;-77
2022/09/01 01:28:53;;;;;;;;;;;13.60;99.90;;;;;;5053714;28;19917;-73
2022/09/01 01:31:23;;;;;;;;;;;13.60;99.90;;;;;;5052970;28;20322;-74
2022/09/01 01:33:50;;;;;;;;;;;13.70;99.90;;;;;;5051193;28;19909;-73
2022/09/01 01:36:16;;;;;;;;;;;13.70;99.90;;;;;;5052174;28;19921;-73
2022/09/01 01:38:45;;;;;;;;;;;13.70;99.90;;;;;;5067971;28;19919;-73
2022/09/01 01:41:12;;;;;;;;;;;13.70;99.90;;;;;;5053633;28;19913;-73
2022/09/01 01:43:39;;;;;;;;;;;13.60;99.90;;;;;;5052131;28;20274;-73
2022/09/01 01:46:07;;;;;;;;;;;13.40;99.90;;;;;;5052084;28;19912;-74
2022/09/01 01:48:38;;;;;;;;;;;13.30;99.90;;;;;;5052059;28;19912;-74
2022/09/01 01:51:05;;;;;;;;;;;13.20;99.90;;;;;;5086226;28;19912;-74
2022/09/01 01:53:31;;;;;;;;;;;13.10;99.90;;;;;;5067997;28;19920;-77
2022/09/01 01:55:58;;;;;;;;;;;13.10;99.90;;;;;;5059981;28;20382;-74
2022/09/01 01:58:29;;;;;;;;;;;13.10;99.90;;;;;;5051598;28;19923;-77
2022/09/01 02:00:56;;;;;;;;;;;13.10;99.90;;;;;;5051704;28;19913;-74
2022/09/01 02:03:24;;;;;;;;;;;13.10;99.90;;;;;;5053226;28;19913;-74
2022/09/01 02:05:52;;;;;;;;;;;13.00;99.90;;;;;;5050820;28;19917;-74
2022/09/01 02:08:21;;;;;;;;;;;13.00;99.90;;;;;;5052337;28;19916;-74
2022/09/01 02:10:49;;;;;;;;;;;13.10;99.90;;;;;;5085464;28;19912;-74
2022/09/01 02:13:18;;;;;;;;;;;13.10;99.90;;;;;;5053724;28;19912;-74
2022/09/01 02:15:49;;;;;;;;;;;13.10;99.90;;;;;;5050227;28;19921;-74
2022/09/01 02:18:17;;;;;;;;;;;13.10;99.90;;;;;;5053715;28;19917;-74
2022/09/01 02:20:44;;;;;;;;;;;13.20;99.90;;;;;;5051893;28;19919;-74
2022/09/01 02:23:11;;;;;;;;;;;13.20;99.90;;;;;;5053985;28;20464;-74
2022/09/01 02:25:39;;;;;;;;;;;13.20;99.90;;;;;;5049966;28;19928;-74
2022/09/01 02:28:08;;;;;;;;;;;13.20;99.90;;;;;;5053154;28;19939;-74
2022/09/01 02:30:36;;;;;;;;;;;13.20;99.90;;;;;;5052295;28;19913;-75
2022/09/01 02:33:03;;;;;;;;;;;13.10;99.90;;;;;;5053136;28;20278;-74
2022/09/01 02:35:30;;;;;;;;;;;13.20;99.90;;;;;;5052079;28;19920;-77
2022/09/01 02:37:59;;;;;;;;;;;13.20;99.90;;;;;;5051342;28;20281;-74
2022/09/01 02:40:29;;;;;;;;;;;13.20;99.90;;;;;;5053426;28;19931;-74
2022/09/01 02:42:57;;;;;;;;;;;13.10;99.90;;;;;;5051168;28;19917;-74
2022/09/01 02:45:25;;;;;;;;;;;13.10;99.90;;;;;;5050771;28;19924;-74
2022/09/01 02:47:53;;;;;;;;;;;13.10;99.90;;;;;;5051234;28;19920;-74
2022/09/01 02:50:20;;;;;;;;;;;13.00;99.90;;;;;;5051992;28;19920;-74
2022/09/01 02:52:51;;;;;;;;;;;13.00;99.90;;;;;;5050303;28;19916;-74
2022/09/01 02:55:20;;;;;;;;;;;13.00;99.90;;;;;;5049756;28;20396;-74
2022/09/01 02:57:48;;;;;;;;;;;13.00;99.90;;;;;;5050085;28;19913;-73
2022/09/01 03:00:27;;;;;;;;;;;13.00;99.90;;;;;;5052552;28;19916;-73
2022/09/01 03:02:58;;;;;;;;;;;13.10;99.90;;;;;;5051212;28;19951;-73
2022/09/01 03:05:25;;;;;;;;;;;13.10;99.90;;;;;;5046855;28;19917;-73
2022/09/01 03:07:55;;;;;;;;;;;13.20;99.90;;;;;;5050826;28;20096;-73
2022/09/01 03:10:24;;;;;;;;;;;13.30;99.90;;;;;;5052808;28;19913;-73
2022/09/01 03:12:52;;;;;;;;;;;13.30;99.90;;;;;;5051812;28;19909;-73
2022/09/01 03:15:19;;;;;;;;;;;13.40;99.90;;;;;;5049680;28;20255;-74
2022/09/01 03:17:45;;;;;;;;;;;13.40;99.90;;;;;;5050218;28;19917;-73
2022/09/01 03:20:12;;;;;;;;;;;13.40;99.90;;;;;;5064331;28;19913;-74
2022/09/01 03:22:38;;;;;;;;;;;13.40;99.90;;;;;;5049224;28;19920;-73
2022/09/01 03:25:04;;;;;;;;;;;13.40;99.90;;;;;;5062959;28;19939;-73
2022/09/01 03:27:32;;;;;;;;;;;13.40;99.90;;;;;;5048368;28;19951;-77
2022/09/01 03:29:58;;;;;;;;;;;13.40;99.90;;;;;;5052055;28;19917;-73
2022/09/01 03:32:24;;;;;;;;;;;13.30;99.90;;;;;;5052274;28;19917;-73
2022/09/01 03:34:50;;;;;;;;;;;13.30;99.90;;;;;;5065076;28;19917;-73
2022/09/01 03:37:16;;;;;;;;;;;13.20;99.90;;;;;;5063330;28;20047;-73
2022/09/01 03:39:42;;;;;;;;;;;13.10;99.90;;;;;;5051163;28;19913;-73
2022/09/01 03:42:10;;;;;;;;;;;13.10;99.90;;;;;;5066961;28;19928;-73
2022/09/01 03:44:39;;;;;;;;;;;13.00;99.90;;;;;;5065353;28;19912;-73
2022/09/01 03:47:09;;;;;;;;;;;13.00;99.90;;;;;;5050964;28;19913;-73
2022/09/01 03:49:38;;;;;;;;;;;13.00;99.90;;;;;;5051289;28;19920;-77
2022/09/01 03:52:07;;;;;;;;;;;13.10;99.90;;;;;;5050850;28;19917;-73
2022/09/01 03:54:33;;;;;;;;;;;13.10;99.90;;;;;;5050723;28;19921;-76
2022/09/01 03:57:00;;;;;;;;;;;13.10;99.90;;;;;;5054685;28;19917;-73
2022/09/01 03:59:28;;;;;;;;;;;13.10;99.90;;;;;;5056145;28;20285;-72
2022/09/01 04:01:55;;;;;;;;;;;13.10;99.90;;;;;;5055194;28;19968;-73
2022/09/01 04:04:21;;;;;;;;;;;13.10;99.90;;;;;;5053531;28;19920;-75
2022/09/01 04:06:48;;;;;;;;;;;13.00;99.90;;;;;;5069299;28;19913;-73
2022/09/01 04:09:14;;;;;;;;;;;13.00;99.90;;;;;;5071002;28;19916;-73
2022/09/01 04:11:45;;;;;;;;;;;13.00;99.90;;;;;;5069937;28;19927;-73
2022/09/01 04:14:11;;;;;;;;;;;13.00;99.90;;;;;;5053787;28;19920;-75
2022/09/01 04:19:25;;;;;;;;;;;13.10;99.90;;;;;;5070868;28;19928;-73
2022/09/01 04:21:58;;;;;;;;;;;13.00;99.90;;;;;;5053706;28;20266;-73
2022/09/01 04:24:29;;;;;;;;;;;12.90;99.90;;;;;;5068923;28;19920;-73
2022/09/01 04:26:58;;;;;;;;;;;12.80;99.90;;;;;;5069093;28;20093;-73
2022/09/01 04:29:28;;;;;;;;;;;12.70;99.90;;;;;;5070013;28;19924;-73
2022/09/01 04:31:58;;;;;;;;;;;12.50;99.90;;;;;;5053803;28;19908;-73
2022/09/01 04:34:25;;;;;;;;;;;12.40;99.90;;;;;;5053206;28;19928;-73
2022/09/01 04:36:55;;;;;;;;;;;12.40;99.90;;;;;;5069006;28;19942;-73
2022/09/01 04:39:22;;;;;;;;;;;12.40;99.90;;;;;;5053981;28;20362;-73
2022/09/01 04:41:49;;;;;;;;;;;12.30;99.90;;;;;;5056593;28;19923;-73
2022/09/01 04:44:17;;;;;;;;;;;12.20;99.90;;;;;;5053331;28;19917;-73
2022/09/01 04:46:49;;;;;;;;;;;12.20;99.90;;;;;;5052986;28;19913;-73
2022/09/01 04:49:20;;;;;;;;;;;12.20;99.90;;;;;;5067093;28;19924;-73
2022/09/01 04:51:48;;;;;;;;;;;12.20;99.90;;;;;;5068031;28;19913;-73
2022/09/01 04:54:15;;;;;;;;;;;12.20;99.90;;;;;;5054033;28;20246;-73
2022/09/01 04:56:44;;;;;;;;;;;12.20;99.90;;;;;;5052623;28;20023;-73
2022/09/01 04:59:13;;;;;;;;;;;12.20;99.90;;;;;;5053730;28;19917;-73
2022/09/01 05:01:44;;;;;;;;;;;12.30;99.90;;;;;;5053023;28;19919;-74
2022/09/01 05:04:15;;;;;;;;;;;12.30;99.90;;;;;;5052885;28;20016;-73
2022/09/01 05:06:43;;;;;;;;;;;12.40;99.90;;;;;;5051598;28;19912;-73
2022/09/01 05:09:10;;;;;;;;;;;12.40;99.90;;;;;;5066005;28;20346;-73
2022/09/01 05:12:09;;;;;;;;;;;12.40;99.90;;;;;;5053649;28;19909;-73
2022/09/01 05:14:41;;;;;;;;;;;12.40;99.90;;;;;;5085598;28;19913;-76
2022/09/01 05:17:09;;;;;;;;;;;12.50;99.90;;;;;;5055005;28;19924;-71
2022/09/01 05:19:41;;;;;;;;;;;12.60;99.90;;;;;;5054006;28;19913;-76
2022/09/01 05:22:10;;;;;;;;;;;12.70;99.90;;;;;;5054402;28;20374;-74
2022/09/01 05:24:40;;;;;;;;;;;12.70;99.90;;;;;;5065612;28;19909;-77
2022/09/01 05:27:09;;;;;;;;;;;12.90;99.90;;;;;;5052527;28;19920;-75
2022/09/01 05:29:37;;;;;;;;;;;13.20;99.90;;;;;;5053958;28;19924;-77
2022/09/01 05:32:08;;;;;;;;;;;13.40;99.90;;;;;;5054099;28;20423;-74
2022/09/01 05:34:37;;;;;;;;;;;13.40;99.90;;;;;;5054459;28;19913;-74
2022/09/01 05:37:05;;;;;;;;;;;13.40;99.90;;;;;;5059013;28;20031;-74
2022/09/01 05:39:32;;;;;;;;;;;13.40;99.90;;;;;;5054502;28;19916;-74
2022/09/01 05:41:58;;;;;;;;;;;13.30;99.90;;;;;;5069789;28;19913;-74
2022/09/01 05:44:24;;;;;;;;;;;13.20;99.90;;;;;;5053817;28;19913;-75
2022/09/01 05:46:54;;;;;;;;;;;13.20;99.90;;;;;;5067446;28;20270;-75
2022/09/01 05:49:20;;;;;;;;;;;13.30;99.90;;;;;;5053772;28;19908;-75
2022/09/01 05:51:50;;;;;;;;;;;13.30;99.90;;;;;;5068453;28;19912;-75
2022/09/01 05:54:18;;;;;;;;;;;13.30;99.90;;;;;;5051914;28;19913;-75
2022/09/01 05:56:44;;;;;;;;;;;13.20;99.90;;;;;;5051647;28;19921;-76
2022/09/01 05:59:14;;;;;;;;;;;13.20;99.90;;;;;;5053771;28;20281;-74
2022/09/01 06:01:41;;;;;;;;;;;13.20;99.90;;;;;;5053258;28;19913;-78
2022/09/01 06:04:08;;;;;;;;;;;13.20;99.90;;;;;;5052106;28;19909;-75
2022/09/01 06:06:37;;;;;;;;;;;13.30;99.90;;;;;;5030846;28;19947;-76
2022/09/01 06:09:05;;;;;;;;;;;13.40;99.90;;;;;;5052280;28;19916;-75
2022/09/01 06:11:31;;;;;;;;;;;13.40;99.90;;;;;;5053373;28;19909;-75
2022/09/01 06:13:59;;;;;;;;;;;13.50;99.90;;;;;;5052363;28;20664;-75
2022/09/01 06:16:26;;;;;;;;;;;13.70;99.90;;;;;;5052901;28;19921;-76
2022/09/01 06:18:54;;;;;;;;;;;13.90;99.90;;;;;;5051811;28;19913;-74
2022/09/01 06:21:21;;;;;;;;;;;14.00;99.90;;;;;;5052827;28;19920;-75
2022/09/01 06:23:52;;;;;;;;;;;14.10;99.90;;;;;;5084739;28;19913;-75
2022/09/01 06:26:27;;;;;;;;;;;14.20;99.90;;;;;;5051961;28;20290;-75
2022/09/01 06:28:55;;;;;;;;;;;14.20;99.90;;;;;;5051664;28;19924;-75
2022/09/01 06:31:23;;;;;;;;;;;14.30;99.90;;;;;;5052596;28;19920;-76
2022/09/01 06:33:54;;;;;;;;;;;14.40;99.90;;;;;;5043962;28;19912;-76
2022/09/01 06:36:20;;;;;;;;;;;14.40;99.90;;;;;;5052552;28;19924;-76
2022/09/01 06:38:47;;;;;;;;;;;14.50;99.90;;;;;;5050957;28;20277;-76
2022/09/01 06:41:14;;;;;;;;;;;14.70;99.90;;;;;;5052198;28;19909;-75
2022/09/01 06:43:40;;;;;;;;;;;14.90;99.90;;;;;;5052826;28;19913;-82
2022/09/01 06:46:08;;;;;;;;;;;15.10;99.90;;;;;;5052510;28;19913;-75
2022/09/01 06:48:38;;;;;;;;;;;15.30;99.90;;;;;;5066348;28;20277;-75
2022/09/01 06:51:11;;;;;;;;;;;15.50;99.90;;;;;;5051332;28;19912;-74
2022/09/01 06:53:38;;;;;;;;;;;15.80;99.90;;;;;;5052986;28;19913;-74
2022/09/01 06:56:08;;;;;;;;;;;16.10;99.90;;;;;;5051144;28;19917;-75
2022/09/01 06:58:34;;;;;;;;;;;16.10;99.90;;;;;;5052297;28;19920;-74
2022/09/01 07:01:04;;;;;;;;;;;16.20;99.90;;;;;;5067302;28;19913;-74
2022/09/01 07:03:31;;;;;;;;;;;16.20;99.90;;;;;;5051918;28;19913;-74
2022/09/01 07:06:28;;;;;;;;;;;16.40;99.90;;;;;;5048460;28;20373;-74
2022/09/01 07:09:13;;;;;;;;;;;16.50;99.90;;;;;;5046872;28;19920;-74
2022/09/01 07:11:41;;;;;;;;;;;16.70;99.90;;;;;;5051121;28;19912;-77
2022/09/01 07:14:07;;;;;;;;;;;16.80;99.90;;;;;;5064140;28;19913;-75
2022/09/01 07:16:36;;;;;;;;;;;16.90;99.90;;;;;;5048918;28;19916;-74
2022/09/01 07:19:02;;;;;;;;;;;16.90;99.90;;;;;;5049770;28;20389;-74
2022/09/01 07:21:31;;;;;;;;;;;17.00;99.90;;;;;;5051075;28;20281;-75
2022/09/01 07:24:00;;;;;;;;;;;17.10;99.90;;;;;;5063543;28;19909;-74
2022/09/01 07:26:27;;;;;;;;;;;17.20;99.90;;;;;;5046916;28;19917;-75
2022/09/01 07:28:55;;;;;;;;;;;17.40;99.90;;;;;;5066440;28;19924;-75
2022/09/01 07:31:26;;;;;;;;;;;17.50;99.90;;;;;;5050604;28;20279;-74
2022/09/01 07:33:57;;;;;;;;;;;17.60;99.90;;;;;;5050803;28;19916;-75
2022/09/01 07:36:24;;;;;;;;;;;17.80;99.90;;;;;;5050816;28;19928;-75
2022/09/01 07:38:52;;;;;;;;;;;17.80;99.90;;;;;;5050297;28;19924;-75
2022/09/01 07:41:20;;;;;;;;;;;18.00;99.90;;;;;;5052159;28;19920;-75
2022/09/01 07:44:07;;;;;;;;;;;18.10;99.90;;;;;;5051659;28;19920;-75
2022/09/01 07:46:58;;;;;;;;;;;18.10;99.90;;;;;;5061676;28;20008;-75
2022/09/01 07:49:26;;;;;;;;;;;18.30;99.90;;;;;;5067631;28;19913;-75
2022/09/01 07:51:53;;;;;;;;;;;18.50;99.90;;;;;;5066669;28;20258;-75
2022/09/01 07:54:22;;;;;;;;;;;18.70;99.90;;;;;;5052188;28;20276;-76
2022/09/01 07:56:49;;;;;;;;;;;18.70;99.90;;;;;;5064017;28;19917;-75
2022/09/01 07:59:17;;;;;;;;;;;19.00;99.90;;;;;;5052215;28;19925;-74
2022/09/01 08:02:04;;;;;;;;;;;19.20;99.90;;;;;;5050648;28;19909;-74
2022/09/01 08:04:32;;;;;;;;;;;19.20;99.90;;;;;;5067532;28;20416;-75
2022/09/01 08:06:59;;;;;;;;;;;19.70;99.90;;;;;;5048570;28;19920;-74
2022/09/01 08:09:26;;;;;;;;;;;20.30;99.90;;;;;;5050426;28;19913;-74
2022/09/01 08:11:53;;;;;;;;;;;20.90;99.20;;;;;;5066070;28;19916;-75
2022/09/01 08:14:19;;;;;;;;;;;21.10;97.40;;;;;;5052251;28;20289;-74
2022/09/01 08:16:45;;;;;;;;;;;20.90;97.50;;;;;;5049773;28;19916;-75
2022/09/01 08:19:12;;;;;;;;;;;20.80;97.50;;;;;;5050675;28;19913;-75
2022/09/01 08:21:58;;;;;;;;;;;21.20;99.90;;;;;;5050933;28;19920;-74
2022/09/01 08:24:38;;;;;;;;;;;22.00;94.80;;;;;;5066368;28;19913;-74
2022/09/01 08:27:04;;;;;;;;;;;21.90;94.10;;;;;;5048334;28;19924;-74
2022/09/01 08:29:30;;;;;;;;;;;21.30;95.40;;;;;;5066317;28;19917;-74
2022/09/01 08:31:57;;;;;;;;;;;21.00;96.40;;;;;;5064920;28;20388;-74
2022/09/01 08:34:24;;;;;;;;;;;21.00;97.10;;;;;;5050276;28;19913;-75
2022/09/01 08:36:51;;;;;;;;;;;21.10;97.10;;;;;;5048197;28;19923;-74
2022/09/01 08:39:18;;;;;;;;;;;21.60;96.80;;;;;;5050456;28;19916;-73
2022/09/01 08:41:50;;;;;;;;;;;21.90;93.60;;;;;;5053621;28;19935;-74
2022/09/01 08:44:37;;;;;;;;;;;21.90;95.30;;;;;;5055437;28;19912;-74
2022/09/01 08:47:05;;;;;;;;;;;22.60;91.90;;;;;;5048476;28;20364;-74
2022/09/01 08:49:33;;;;;;;;;;;23.20;93.00;;;;;;5060673;28;19913;-74
2022/09/01 08:52:24;;;;;;;;;;;22.90;90.80;;;;;;5059987;28;19913;-74
2022/09/01 08:54:54;;;;;;;;;;;22.60;91.60;;;;;;5068996;28;19928;-74
2022/09/01 08:57:26;;;;;;;;;;;23.00;91.00;;;;;;5068265;28;19917;-74
2022/09/01 09:00:29;;;;;;;;;;;23.00;90.30;;;;;;5052752;28;20076;-75
2022/09/01 09:03:04;;;;;;;;;;;22.80;88.60;;;;;;5052947;28;19913;-73
2022/09/01 09:05:30;;;;;;;;;;;22.40;91.30;;;;;;5055644;28;19920;-74
2022/09/01 09:08:05;;;;;;;;;;;22.90;92.00;;;;;;5055573;28;20282;-74
2022/09/01 09:10:49;;;;;;;;;;;23.20;89.70;;;;;;5057048;28;19920;-74
2022/09/01 09:13:15;;;;;;;;;;;23.30;88.90;;;;;;5055530;28;20400;-74
2022/09/01 09:15:43;;;;;;;;;;;23.30;88.40;;;;;;5055262;28;19924;-74
2022/09/01 09:18:17;;;;;;;;;;;23.70;88.20;;;;;;5053554;28;19924;-74
2022/09/01 09:20:44;;;;;;;;;;;24.10;83.20;;;;;;5055661;28;20018;-73
2022/09/01 09:23:36;;;;;;;;;;;23.40;86.80;;;;;;5054286;28;19912;-74
2022/09/01 09:26:02;;;;;;;;;;;23.50;86.50;;;;;;5055947;28;19927;-75
2022/09/01 09:28:28;;;;;;;;;;;23.10;84.50;;;;;;5075251;28;19924;-74
2022/09/01 09:31:13;;;;;;;;;;;22.50;85.70;;;;;;5074693;28;19924;-75
2022/09/01 09:33:39;;;;;;;;;;;21.90;89.20;;;;;;5075334;28;19928;-73
2022/09/01 09:36:19;;;;;;;;;;;21.50;91.60;;;;;;5089464;28;20207;-74
2022/09/01 09:38:45;;;;;;;;;;;22.00;90.80;;;;;;5075097;28;20387;-74
2022/09/01 09:41:19;;;;;;;;;;;22.60;90.20;;;;;;5074353;28;19912;-74
2022/09/01 09:43:57;;;;;;;;;;;23.20;85.30;;;;;;5083602;28;19917;-74
2022/09/01 09:46:26;;;;;;;;;;;22.90;85.10;;;;;;5068519;28;20356;-74
2022/09/01 09:49:12;;;;;;;;;;;22.90;85.60;;;;;;5074200;28;19971;-74
2022/09/01 09:51:39;;;;;;;;;;;23.00;86.70;;;;;;5060262;28;19920;-74
2022/09/01 09:54:13;;;;;;;;;;;23.50;84.70;;;;;;5071625;28;19917;-73
2022/09/01 09:56:45;;;;;;;;;;;24.40;81.80;;;;;;5073090;28;19920;-74
2022/09/01 09:59:20;;;;;;;;;;;25.00;79.10;;;;;;5073895;28;19927;-74
2022/09/01 10:01:50;;;;;;;;;;;24.50;75.50;;;;;;5073916;28;19913;-74
2022/09/01 10:04:35;;;;;;;;;;;23.60;80.50;;;;;;5074138;28;19912;-74
2022/09/01 10:07:21;;;;;;;;;;;23.70;80.40;;;;;;5071777;28;19912;-75
2022/09/01 10:09:47;;;;;;;;;;;23.90;80.60;;;;;;5073619;28;20273;-74
2022/09/01 10:12:14;;;;;;;;;;;24.60;78.10;;;;;;5072620;28;19995;-74
2022/09/01 10:14:41;;;;;;;;;;;24.80;75.50;;;;;;5073297;28;19984;-74
2022/09/01 10:17:13;;;;;;;;;;;24.50;76.60;;;;;;5071514;28;19924;-74
2022/09/01 10:19:42;;;;;;;;;;;24.20;77.00;;;;;;5073237;28;20456;-74
2022/09/01 10:22:09;;;;;;;;;;;23.70;75.40;;;;;;5072561;28;20277;-74
2022/09/01 10:24:36;;;;;;;;;;;23.00;79.50;;;;;;5074355;28;19913;-74
2022/09/01 10:27:07;;;;;;;;;;;23.20;80.00;;;;;;5070914;28;19920;-74
2022/09/01 10:29:36;;;;;;;;;;;23.80;76.50;;;;;;5073627;28;19924;-74
2022/09/01 10:32:07;;;;;;;;;;;23.90;72.70;;;;;;5072628;28;20354;-74
2022/09/01 10:34:35;;;;;;;;;;;23.50;74.80;;;;;;5073102;28;19923;-74
2022/09/01 10:37:02;;;;;;;;;;;23.30;76.40;;;;;;5071120;28;19928;-75
2022/09/01 10:39:28;;;;;;;;;;;23.10;76.30;;;;;;5073126;28;20264;-74
2022/09/01 10:41:56;;;;;;;;;;;23.00;76.00;;;;;;5072250;28;19917;-74
2022/09/01 10:44:29;;;;;;;;;;;23.10;75.60;;;;;;5076135;28;19923;-74
2022/09/01 10:46:56;;;;;;;;;;;23.40;75.20;;;;;;5071060;28;19923;-74
2022/09/01 10:49:26;;;;;;;;;;;23.50;75.20;;;;;;5072945;28;19912;-74
2022/09/01 10:51:54;;;;;;;;;;;23.20;73.80;;;;;;5070910;28;19924;-74
2022/09/01 10:54:38;;;;;;;;;;;23.00;74.00;;;;;;5072739;28;19913;-74
2022/09/01 10:57:20;;;;;;;;;;;23.10;76.60;;;;;;5071609;28;20358;-74
2022/09/01 10:59:46;;;;;;;;;;;23.50;75.40;;;;;;5073190;28;19920;-74
2022/09/01 11:02:16;;;;;;;;;;;23.20;73.40;;;;;;5072453;28;19913;-74
2022/09/01 11:04:45;;;;;;;;;;;22.90;74.50;;;;;;5072552;28;19919;-75
2022/09/01 11:07:17;;;;;;;;;;;22.90;74.00;;;;;;5070113;28;20360;-74
2022/09/01 11:10:07;;;;;;;;;;;22.90;74.80;;;;;;5060692;28;19912;-75
2022/09/01 11:12:38;;;;;;;;;;;23.20;72.80;;;;;;5028692;28;19917;-75
2022/09/01 11:15:25;;;;;;;;;;;23.30;72.90;;;;;;5070925;28;19938;-74
2022/09/01 11:17:51;;;;;;;;;;;23.10;72.70;;;;;;5054443;28;19920;-77
2022/09/01 11:20:26;;;;;;;;;;;22.70;73.00;;;;;;5074160;28;19919;-75
2022/09/01 11:22:55;;;;;;;;;;;22.70;73.60;;;;;;5074182;28;19912;-76
2022/09/01 11:25:38;;;;;;;;;;;22.60;73.90;;;;;;5070054;28;19920;-75
2022/09/01 11:28:06;;;;;;;;;;;22.70;74.40;;;;;;5067980;28;19921;-74
2022/09/01 11:30:51;;;;;;;;;;;22.80;73.70;;;;;;5074421;28;19919;-74
2022/09/01 11:33:29;;;;;;;;;;;22.80;74.10;;;;;;5074103;28;19913;-75
2022/09/01 11:35:58;;;;;;;;;;;23.00;72.40;;;;;;5072685;28;19917;-76
2022/09/01 11:38:24;;;;;;;;;;;23.10;74.00;;;;;;5069109;28;20393;-76
2022/09/01 11:40:54;;;;;;;;;;;23.30;71.40;;;;;;5072837;28;19920;-76
2022/09/01 11:43:22;;;;;;;;;;;23.40;71.60;;;;;;5074236;28;19924;-74
2022/09/01 11:45:52;;;;;;;;;;;23.30;71.00;;;;;;5070495;28;19943;-75
2022/09/01 11:48:18;;;;;;;;;;;23.50;72.60;;;;;;5070225;28;19912;-75
2022/09/01 11:50:44;;;;;;;;;;;23.60;71.60;;;;;;5071158;28;21347;-75
2022/09/01 11:53:14;;;;;;;;;;;23.50;71.10;;;;;;5069917;28;19913;-74
2022/09/01 11:55:44;;;;;;;;;;;23.60;71.70;;;;;;5070927;28;19919;-75
2022/09/01 11:58:32;;;;;;;;;;;23.80;69.40;;;;;;5043978;28;19921;-75
2022/09/01 12:01:10;;;;;;;;;;;23.50;69.70;;;;;;5067822;28;19913;-76
2022/09/01 12:03:36;;;;;;;;;;;23.70;72.40;;;;;;5068610;28;19912;-76
2022/09/01 12:06:04;;;;;;;;;;;24.50;68.10;;;;;;5065323;28;19916;-76
2022/09/01 12:08:32;;;;;;;;;;;24.70;65.10;;;;;;5072908;28;20269;-75
2022/09/01 12:11:02;;;;;;;;;;;24.50;64.40;;;;;;5072798;28;19919;-75
2022/09/01 12:13:28;;;;;;;;;;;24.30;65.00;;;;;;5073503;28;19913;-73
2022/09/01 12:15:58;;;;;;;;;;;24.00;66.00;;;;;;5071742;28;19922;-75
2022/09/01 12:18:29;;;;;;;;;;;23.60;66.20;;;;;;5077937;28;19920;-74
2022/09/01 12:20:56;;;;;;;;;;;23.60;66.20;;;;;;5078048;28;19932;-77
2022/09/01 12:23:25;;;;;;;;;;;23.60;65.90;;;;;;5078333;28;19920;-75
2022/09/01 12:25:59;;;;;;;;;;;23.50;65.50;;;;;;5076434;28;19924;-76
2022/09/01 12:28:29;;;;;;;;;;;23.70;65.60;;;;;;5077527;28;19917;-74
2022/09/01 12:30:57;;;;;;;;;;;23.70;65.40;;;;;;5078481;28;19913;-76
2022/09/01 12:33:24;;;;;;;;;;;23.90;65.50;;;;;;5081134;28;20345;-75
2022/09/01 12:35:54;;;;;;;;;;;24.10;64.70;;;;;;5078237;28;19924;-76
2022/09/01 12:38:20;;;;;;;;;;;23.90;63.90;;;;;;5078455;28;20246;-75
2022/09/01 12:40:47;;;;;;;;;;;24.10;64.40;;;;;;5077688;28;20300;-74
2022/09/01 12:43:30;;;;;;;;;;;23.90;64.50;;;;;;5076894;28;19912;-75
2022/09/01 12:46:00;;;;;;;;;;;23.90;63.90;;;;;;5076921;28;19923;-75
2022/09/01 12:48:28;;;;;;;;;;;23.90;65.00;;;;;;5077655;28;20369;-74
2022/09/01 12:50:55;;;;;;;;;;;24.10;63.20;;;;;;5076998;28;19923;-75
2022/09/01 12:53:23;;;;;;;;;;;24.30;63.60;;;;;;5076237;28;19928;-74
2022/09/01 12:56:13;;;;;;;;;;;24.60;63.10;;;;;;5074379;28;19928;-74
2022/09/01 12:58:40;;;;;;;;;;;24.70;62.90;;;;;;5059746;28;19920;-74
2022/09/01 13:01:13;;;;;;;;;;;24.60;61.80;;;;;;5074826;28;19916;-74
2022/09/01 13:03:39;;;;;;;;;;;24.50;62.30;;;;;;5057516;28;19912;-74
2022/09/01 13:06:05;;;;;;;;;;;24.30;62.00;;;;;;5073399;28;19916;-74
2022/09/01 13:08:32;;;;;;;;;;;24.10;62.00;;;;;;5075411;28;19916;-74
2022/09/01 13:11:09;;;;;;;;;;;24.10;63.60;;;;;;5074200;28;19912;-75
2022/09/01 13:13:35;;;;;;;;;;;24.10;63.40;;;;;;5074139;28;19912;-75
2022/09/01 13:16:03;;;;;;;;;;;24.10;63.90;;;;;;5071958;28;19928;-75
2022/09/01 13:18:29;;;;;;;;;;;24.10;63.30;;;;;;5074517;28;19916;-74
2022/09/01 13:20:56;;;;;;;;;;;24.10;63.40;;;;;;5074250;28;19923;-76
2022/09/01 13:23:22;;;;;;;;;;;24.20;63.20;;;;;;5073984;28;20372;-74
2022/09/01 13:25:50;;;;;;;;;;;24.30;63.60;;;;;;5072807;28;20273;-74
2022/09/01 13:28:16;;;;;;;;;;;24.20;62.80;;;;;;5072726;28;19913;-74
2022/09/01 13:30:45;;;;;;;;;;;24.10;62.80;;;;;;5057275;28;19912;-74
2022/09/01 13:33:11;;;;;;;;;;;24.10;63.10;;;;;;5073534;28;20285;-74
2022/09/01 13:35:37;;;;;;;;;;;24.10;62.70;;;;;;5073380;28;19908;-75
2022/09/01 13:38:03;;;;;;;;;;;24.20;63.10;;;;;;5073178;28;19917;-75
2022/09/01 13:40:29;;;;;;;;;;;24.30;62.60;;;;;;5074133;28;19923;-74
2022/09/01 13:42:55;;;;;;;;;;;24.30;62.50;;;;;;5073941;28;20372;-77
2022/09/01 13:45:24;;;;;;;;;;;24.40;62.60;;;;;;5073880;28;19913;-75
2022/09/01 13:47:50;;;;;;;;;;;24.60;62.60;;;;;;5073332;28;19912;-74
2022/09/01 13:50:18;;;;;;;;;;;24.50;61.80;;;;;;5073261;28;19927;-75
2022/09/01 13:52:48;;;;;;;;;;;24.30;62.00;;;;;;5074127;28;19913;-75
2022/09/01 13:55:17;;;;;;;;;;;24.10;62.60;;;;;;5072434;28;19923;-75
2022/09/01 13:57:43;;;;;;;;;;;24.00;62.40;;;;;;5071940;28;19943;-74
2022/09/01 14:00:12;;;;;;;;;;;24.10;62.30;;;;;;5072756;28;20372;-74
2022/09/01 14:02:38;;;;;;;;;;;24.10;62.30;;;;;;5073945;28;19912;-73
2022/09/01 14:05:04;;;;;;;;;;;24.00;62.60;;;;;;5070342;28;19917;-74
2022/09/01 14:07:31;;;;;;;;;;;24.20;62.10;;;;;;5072452;28;19912;-74
2022/09/01 14:09:57;;;;;;;;;;;24.20;62.40;;;;;;5073023;28;19912;-76
2022/09/01 14:12:23;;;;;;;;;;;24.20;62.40;;;;;;5072880;28;19913;-74
2022/09/01 14:14:49;;;;;;;;;;;24.20;62.40;;;;;;5073390;28;19919;-74
2022/09/01 14:17:15;;;;;;;;;;;24.10;62.90;;;;;;5063785;28;19916;-74
2022/09/01 14:19:41;;;;;;;;;;;24.00;62.70;;;;;;5072870;28;19924;-74
2022/09/01 14:22:07;;;;;;;;;;;24.00;63.10;;;;;;5072307;28;20369;-74
2022/09/01 14:24:35;;;;;;;;;;;23.90;62.70;;;;;;5072734;28;19915;-74
2022/09/01 14:27:01;;;;;;;;;;;24.00;62.70;;;;;;5070975;28;19921;-75
2022/09/01 14:29:28;;;;;;;;;;;24.00;63.20;;;;;;5073116;28;19939;-73
2022/09/01 14:31:56;;;;;;;;;;;24.10;62.50;;;;;;5073654;28;19916;-73
2022/09/01 14:34:23;;;;;;;;;;;24.10;62.60;;;;;;5072406;28;19913;-74
2022/09/01 14:36:53;;;;;;;;;;;24.00;62.20;;;;;;5071119;28;19920;-73